createdAt,value
2024-01-17T00:00:19.921Z,31.60
2024-01-17T00:02:47.313Z,30.70
2024-01-17T00:05:14.546Z,28.25
2024-01-17T00:07:41.862Z,29.23
2024-01-17T00:10:10.386Z,29.48
2024-01-17T00:12:37.633Z,28.77
2024-01-17T00:15:05.148Z,30.05
2024-01-17T00:17:32.511Z,28.38
2024-01-17T00:19:59.813Z,30.30
2024-01-17T00:22:27.004Z,28.13
2024-01-17T00:24:54.697Z,28.35
2024-01-17T00:27:25.317Z,28.38
2024-01-17T00:29:59.366Z,28.02
2024-01-17T00:32:27.110Z,28.23
2024-01-17T00:34:55.856Z,28.00
2024-01-17T00:37:23.141Z,28.33
2024-01-17T00:39:50.526Z,25.98
2024-01-17T00:42:17.748Z,26.48
2024-01-17T00:44:45.169Z,28.52
2024-01-17T00:47:13.961Z,26.98
2024-01-17T00:49:41.543Z,26.83
2024-01-17T00:52:11.089Z,27.23
2024-01-17T00:54:38.361Z,27.10
2024-01-17T00:57:05.815Z,27.08
2024-01-17T00:59:33.160Z,26.00
2024-01-17T01:02:03.066Z,25.95
2024-01-17T01:04:30.448Z,26.17
2024-01-17T01:06:57.675Z,26.67
2024-01-17T01:09:24.927Z,24.63
2024-01-17T01:11:52.435Z,25.60
2024-01-17T01:14:19.696Z,25.73
2024-01-17T01:16:46.857Z,25.92
2024-01-17T01:19:14.258Z,24.55
2024-01-17T01:21:41.621Z,25.50
2024-01-17T01:24:08.968Z,24.80
2024-01-17T01:26:45.200Z,23.95
2024-01-17T01:29:12.635Z,24.90
2024-01-17T01:31:39.809Z,25.75
2024-01-17T01:34:07.072Z,24.58
2024-01-17T01:36:34.399Z,25.33
2024-01-17T01:39:01.745Z,24.88
2024-01-17T01:41:28.992Z,24.70
2024-01-17T01:43:56.261Z,22.88
2024-01-17T01:46:26.038Z,24.02
2024-01-17T01:48:53.582Z,23.50
2024-01-17T01:51:21.304Z,23.30
2024-01-17T01:53:50.484Z,24.10
2024-01-17T01:56:19.245Z,21.73
2024-01-17T01:58:47.762Z,23.30
2024-01-17T02:01:16.486Z,23.20
2024-01-17T02:03:44.673Z,23.05
2024-01-17T02:06:14.272Z,22.63
2024-01-17T02:08:41.808Z,22.17
2024-01-17T02:11:10.019Z,22.33
2024-01-17T02:13:37.822Z,21.85
2024-01-17T02:16:05.178Z,21.67
2024-01-17T02:18:32.534Z,21.67
2024-01-17T02:20:59.962Z,20.73
2024-01-17T02:23:28.224Z,21.10
2024-01-17T02:25:56.259Z,22.38
2024-01-17T02:28:23.612Z,21.65
2024-01-17T02:30:50.865Z,20.50
2024-01-17T02:33:18.269Z,20.95
2024-01-17T02:35:45.585Z,21.60
2024-01-17T02:38:12.917Z,21.00
2024-01-17T02:40:40.136Z,20.75
2024-01-17T02:43:07.629Z,20.40
2024-01-17T02:45:34.906Z,21.02
2024-01-17T02:48:02.368Z,19.45
2024-01-17T02:50:29.751Z,20.80
2024-01-17T02:52:56.973Z,20.83
2024-01-17T02:55:24.478Z,19.95
2024-01-17T02:57:52.343Z,18.98
2024-01-17T03:00:20.020Z,19.85
2024-01-17T03:02:48.061Z,19.27
2024-01-17T03:05:15.625Z,19.42
2024-01-17T03:07:42.867Z,19.92
2024-01-17T03:10:12.887Z,20.15
2024-01-17T03:12:40.923Z,18.58
2024-01-17T03:15:09.336Z,17.88
2024-01-17T03:17:39.948Z,19.55
2024-01-17T03:20:09.347Z,19.02
2024-01-17T03:22:36.551Z,17.88
2024-01-17T03:25:03.971Z,18.45
2024-01-17T03:27:31.132Z,18.88
2024-01-17T03:30:01.235Z,18.08
2024-01-17T03:32:28.497Z,17.67
2024-01-17T03:34:57.247Z,18.27
2024-01-17T03:37:24.528Z,17.60
2024-01-17T03:39:51.740Z,17.30
2024-01-17T03:42:18.985Z,18.58
2024-01-17T03:44:46.743Z,17.55
2024-01-17T03:47:14.197Z,16.70
2024-01-17T03:49:41.706Z,16.48
2024-01-17T03:52:09.054Z,17.90
2024-01-17T03:54:37.632Z,17.15
2024-01-17T03:57:06.589Z,16.48
2024-01-17T03:59:34.181Z,15.48
2024-01-17T04:02:01.705Z,15.60
2024-01-17T04:04:29.073Z,16.90
2024-01-17T04:06:56.732Z,16.65
2024-01-17T04:09:24.272Z,16.67
2024-01-17T04:11:51.673Z,15.65
2024-01-17T04:14:19.062Z,16.05
2024-01-17T04:16:46.330Z,15.40
2024-01-17T04:19:13.647Z,15.68
2024-01-17T04:21:40.906Z,15.00
2024-01-17T04:24:08.227Z,16.25
2024-01-17T04:26:35.605Z,15.05
2024-01-17T04:29:02.886Z,15.70
2024-01-17T04:31:31.501Z,16.33
2024-01-17T04:34:00.342Z,15.65
2024-01-17T04:36:31.385Z,16.05
2024-01-17T04:38:59.281Z,14.65
2024-01-17T04:41:27.135Z,15.18
2024-01-17T04:43:54.428Z,14.13
2024-01-17T04:46:21.743Z,14.50
2024-01-17T04:48:49.383Z,14.63
2024-01-17T04:51:17.200Z,13.40
2024-01-17T04:53:45.049Z,13.70
2024-01-17T04:56:14.670Z,14.98
2024-01-17T04:58:42.169Z,13.20
2024-01-17T05:01:12.631Z,14.50
2024-01-17T05:03:43.056Z,14.30
2024-01-17T05:06:10.397Z,13.15
2024-01-17T05:08:37.716Z,13.98
2024-01-17T05:11:05.128Z,14.57
2024-01-17T05:13:32.435Z,13.02
2024-01-17T05:15:59.684Z,13.35
2024-01-17T05:18:27.167Z,13.98
2024-01-17T05:20:54.501Z,13.38
2024-01-17T05:23:21.745Z,13.38
2024-01-17T05:25:49.442Z,12.85
2024-01-17T05:28:16.715Z,14.13
2024-01-17T05:30:43.968Z,12.95
2024-01-17T05:33:11.492Z,12.75
2024-01-17T05:35:38.848Z,12.98
2024-01-17T05:38:06.193Z,13.07
2024-01-17T05:40:33.519Z,12.43
2024-01-17T05:43:01.996Z,11.73
2024-01-17T05:45:29.348Z,12.48
2024-01-17T05:47:56.666Z,13.93
2024-01-17T05:50:24.161Z,13.43
2024-01-17T05:52:51.471Z,12.75
2024-01-17T05:55:20.456Z,12.35
2024-01-17T05:57:47.709Z,12.57
2024-01-17T06:00:15.239Z,12.70
2024-01-17T06:02:44.420Z,11.90
2024-01-17T06:05:12.819Z,12.23
2024-01-17T06:07:41.797Z,12.13
2024-01-17T06:10:09.941Z,27.42
2024-01-17T06:12:37.117Z,37.45
2024-01-17T06:15:04.589Z,36.50
2024-01-17T06:17:33.077Z,36.58
2024-01-17T06:20:00.473Z,33.13
2024-01-17T06:22:27.748Z,30.35
2024-01-17T06:24:54.947Z,31.52
2024-01-17T06:27:23.404Z,31.95
2024-01-17T06:29:50.674Z,31.00
2024-01-17T06:32:17.925Z,30.73
2024-01-17T06:34:45.710Z,27.70
2024-01-17T06:37:13.051Z,28.38
2024-01-17T06:39:41.101Z,27.65
2024-01-17T06:42:08.450Z,27.95
2024-01-17T06:44:35.777Z,26.48
2024-01-17T06:47:04.962Z,28.02
2024-01-17T06:49:32.488Z,28.08
2024-01-17T06:51:59.816Z,25.67
2024-01-17T06:54:27.160Z,25.60
2024-01-17T06:56:54.432Z,25.63
2024-01-17T06:59:21.614Z,25.67
2024-01-17T07:01:49.012Z,24.30
2024-01-17T07:04:16.291Z,24.33
2024-01-17T07:06:43.516Z,24.00
2024-01-17T07:09:12.379Z,24.55
2024-01-17T07:11:39.767Z,24.27
2024-01-17T07:14:07.065Z,22.08
2024-01-17T07:16:34.791Z,23.15
2024-01-17T07:19:02.089Z,23.67
2024-01-17T07:21:29.549Z,25.52
2024-01-17T07:23:56.782Z,22.90
2024-01-17T07:26:24.008Z,22.23
2024-01-17T07:28:51.187Z,22.73
2024-01-17T07:31:18.445Z,22.52
2024-01-17T07:33:45.766Z,21.35
2024-01-17T07:36:13.354Z,21.98
2024-01-17T07:38:40.719Z,21.33
2024-01-17T07:41:07.955Z,21.48
2024-01-17T07:43:37.618Z,21.92
2024-01-17T07:46:05.175Z,18.60
2024-01-17T07:48:32.448Z,15.90
2024-01-17T07:50:59.764Z,14.90
2024-01-17T07:53:28.581Z,14.88
2024-01-17T07:55:57.144Z,15.25
2024-01-17T07:58:24.513Z,15.43
2024-01-17T08:00:51.883Z,19.15
2024-01-17T08:03:19.369Z,16.13
2024-01-17T08:05:46.815Z,19.58
2024-01-17T08:08:14.422Z,19.50
2024-01-17T08:10:41.594Z,20.13
2024-01-17T08:13:08.792Z,21.33
2024-01-17T08:15:36.113Z,20.70
2024-01-17T08:18:04.759Z,22.85
2024-01-17T08:20:32.728Z,22.77
2024-01-17T08:22:59.935Z,25.65
2024-01-17T08:25:27.714Z,28.98
2024-01-17T08:27:55.685Z,30.27
2024-01-17T08:30:23.250Z,31.30
2024-01-17T08:32:52.667Z,32.33
2024-01-17T08:35:20.072Z,35.38
2024-01-17T08:37:47.324Z,36.25
2024-01-17T08:40:14.689Z,38.65
2024-01-17T08:42:41.881Z,39.10
2024-01-17T08:45:09.518Z,40.47
2024-01-17T08:47:37.035Z,43.58
2024-01-17T08:50:04.565Z,45.95
2024-01-17T08:52:31.800Z,48.25
2024-01-17T08:55:02.207Z,48.55
2024-01-17T08:57:29.455Z,49.83
2024-01-17T08:59:56.684Z,53.28
2024-01-17T09:02:24.408Z,54.08
2024-01-17T09:04:51.658Z,56.25
2024-01-17T09:07:18.991Z,56.40
2024-01-17T09:09:47.437Z,57.22
2024-01-17T09:12:18.381Z,54.90
2024-01-17T09:14:45.689Z,56.65
2024-01-17T09:17:12.913Z,58.75
2024-01-17T09:19:40.280Z,58.33
2024-01-17T09:22:08.440Z,61.28
2024-01-17T09:24:37.809Z,60.00
2024-01-17T09:27:05.279Z,65.18
2024-01-17T09:29:34.961Z,65.38
2024-01-17T09:32:02.381Z,72.47
2024-01-17T09:34:30.564Z,74.50
2024-01-17T09:36:58.021Z,72.30
2024-01-17T09:39:25.275Z,75.60
2024-01-17T09:41:53.054Z,71.57
2024-01-17T09:44:20.288Z,47.97
2024-01-17T09:46:47.503Z,55.17
2024-01-17T09:49:15.025Z,54.60
2024-01-17T09:51:42.527Z,53.40
2024-01-17T09:54:09.755Z,55.38
2024-01-17T09:56:37.401Z,55.58
2024-01-17T09:59:24.491Z,52.85
2024-01-17T10:01:51.687Z,49.22
2024-01-17T10:04:19.970Z,50.40
2024-01-17T10:06:50.046Z,52.05
2024-01-17T10:09:17.553Z,54.92
2024-01-17T10:11:45.148Z,55.08
2024-01-17T10:14:13.236Z,56.88
2024-01-17T10:16:40.392Z,53.13
2024-01-17T10:19:07.931Z,50.17
2024-01-17T10:21:35.882Z,45.78
2024-01-17T10:24:03.739Z,46.45
2024-01-17T10:26:32.084Z,44.25
2024-01-17T10:28:59.549Z,44.47
2024-01-17T10:31:26.955Z,43.88
2024-01-17T10:33:55.783Z,42.00
2024-01-17T10:36:24.504Z,42.08
2024-01-17T10:38:51.954Z,42.58
2024-01-17T10:41:19.246Z,42.22
2024-01-17T10:43:56.701Z,41.13
2024-01-17T10:46:24.471Z,41.97
2024-01-17T10:48:55.047Z,42.28
2024-01-17T10:51:23.359Z,42.38
2024-01-17T10:53:55.222Z,43.38
2024-01-17T10:56:24.539Z,43.22
2024-01-17T10:58:52.885Z,45.33
2024-01-17T11:01:27.045Z,49.15
2024-01-17T11:03:58.315Z,51.53
2024-01-17T11:06:25.937Z,56.42
2024-01-17T11:08:53.399Z,66.85
2024-01-17T11:11:20.958Z,68.95
2024-01-17T11:13:49.274Z,70.85
2024-01-17T11:16:17.489Z,75.43
2024-01-17T11:18:47.438Z,72.95
2024-01-17T11:21:14.992Z,75.68
2024-01-17T11:23:45.120Z,77.10
2024-01-17T11:26:17.836Z,77.28
2024-01-17T11:29:08.426Z,75.15
2024-01-17T11:31:55.775Z,80.35
2024-01-17T11:34:23.691Z,82.05
2024-01-17T11:36:51.181Z,80.82
2024-01-17T11:39:19.602Z,85.88
2024-01-17T11:41:47.959Z,86.38
2024-01-17T11:44:16.732Z,92.65
2024-01-17T11:46:44.014Z,93.70
2024-01-17T11:49:11.614Z,98.68
2024-01-17T11:51:39.378Z,99.53
2024-01-17T11:54:06.949Z,106.20
2024-01-17T11:56:35.109Z,104.72
2024-01-17T11:59:10.493Z,106.22
2024-01-17T12:01:37.710Z,113.53
2024-01-17T12:04:15.058Z,111.90
2024-01-17T12:06:43.276Z,129.35
2024-01-17T12:09:16.989Z,114.47
2024-01-17T12:11:44.368Z,98.45
2024-01-17T12:14:11.563Z,88.03
2024-01-17T12:16:38.762Z,62.72
2024-01-17T12:19:06.180Z,61.83
2024-01-17T12:21:33.626Z,55.15
2024-01-17T12:24:01.086Z,59.60
2024-01-17T12:26:31.162Z,56.78
2024-01-17T12:29:09.505Z,61.05
2024-01-17T12:31:37.894Z,68.70
2024-01-17T12:34:08.390Z,72.18
2024-01-17T12:36:37.126Z,73.15
2024-01-17T12:39:10.238Z,75.93
2024-01-17T12:41:37.899Z,76.88
2024-01-17T12:44:06.213Z,76.97
2024-01-17T12:46:33.772Z,77.40
2024-01-17T12:49:03.108Z,82.68
2024-01-17T12:51:31.281Z,82.78
2024-01-17T12:53:59.367Z,89.78
2024-01-17T12:56:27.742Z,90.50
2024-01-17T12:58:54.949Z,91.18
2024-01-17T13:01:27.053Z,93.53
2024-01-17T13:04:01.562Z,99.95
2024-01-17T13:06:29.075Z,99.82
2024-01-17T13:08:56.425Z,97.10
2024-01-17T13:11:24.402Z,104.15
2024-01-17T13:14:00.049Z,105.15
2024-01-17T13:16:31.628Z,102.63
2024-01-17T13:18:59.404Z,104.93
2024-01-17T13:21:26.760Z,103.20
2024-01-17T13:23:54.011Z,109.38
2024-01-17T13:26:21.310Z,107.80
2024-01-17T13:28:48.534Z,113.15
2024-01-17T13:31:15.800Z,110.68
2024-01-17T13:33:44.750Z,113.70
2024-01-17T13:36:12.033Z,111.35
2024-01-17T13:38:41.227Z,118.00
2024-01-17T13:41:08.958Z,121.03
2024-01-17T13:43:36.719Z,121.78
2024-01-17T13:46:04.044Z,121.07
2024-01-17T13:48:31.502Z,126.95
2024-01-17T13:51:00.233Z,126.72
2024-01-17T13:53:32.488Z,122.30
2024-01-17T13:56:00.604Z,124.20
2024-01-17T13:58:28.623Z,117.97
2024-01-17T14:01:01.073Z,111.88
2024-01-17T14:03:32.485Z,110.88
2024-01-17T14:06:00.658Z,106.32
2024-01-17T14:08:28.116Z,91.97
2024-01-17T14:10:56.787Z,86.50
2024-01-17T14:13:25.566Z,81.05
2024-01-17T14:15:52.794Z,97.10
2024-01-17T14:18:20.289Z,102.53
2024-01-17T14:20:48.386Z,104.88
2024-01-17T14:23:16.184Z,107.03
2024-01-17T14:25:44.371Z,110.22
2024-01-17T14:28:11.566Z,105.85
2024-01-17T14:30:38.889Z,108.50
2024-01-17T14:33:07.020Z,107.05
2024-01-17T14:35:38.618Z,112.15
2024-01-17T14:38:06.978Z,113.57
2024-01-17T14:40:34.156Z,115.05
2024-01-17T14:43:01.928Z,121.22
2024-01-17T14:45:29.127Z,125.72
2024-01-17T14:47:56.838Z,128.13
2024-01-17T14:50:24.101Z,129.38
2024-01-17T14:52:51.984Z,128.75
2024-01-17T14:55:20.909Z,139.40
2024-01-17T14:57:50.275Z,141.50
2024-01-17T15:00:21.389Z,144.57
2024-01-17T15:02:49.875Z,142.60
2024-01-17T15:05:18.291Z,146.98
2024-01-17T15:07:46.595Z,149.95
2024-01-17T15:10:17.154Z,147.82
2024-01-17T15:12:44.361Z,152.13
2024-01-17T15:15:14.691Z,158.85
2024-01-17T15:17:42.192Z,160.20
2024-01-17T15:20:11.241Z,165.18
2024-01-17T15:22:38.789Z,169.05
2024-01-17T15:25:08.740Z,170.85
2024-01-17T15:27:37.779Z,165.43
2024-01-17T15:30:06.448Z,170.60
2024-01-17T15:32:34.033Z,170.57
2024-01-17T15:35:02.100Z,182.40
2024-01-17T15:37:29.653Z,173.85
2024-01-17T15:39:56.861Z,182.75
2024-01-17T15:42:24.277Z,179.63
2024-01-17T15:44:53.526Z,184.55
2024-01-17T15:47:20.968Z,190.15
2024-01-17T15:49:48.202Z,185.57
2024-01-17T15:52:16.030Z,190.55
2024-01-17T15:54:43.978Z,190.75
2024-01-17T15:57:11.387Z,194.68
2024-01-17T15:59:38.891Z,193.43
2024-01-17T16:02:06.651Z,193.32
2024-01-17T16:04:37.677Z,200.60
2024-01-17T16:07:05.107Z,196.48
2024-01-17T16:09:32.385Z,194.75
2024-01-17T16:11:59.692Z,198.18
2024-01-17T16:14:26.942Z,203.13
2024-01-17T16:16:54.149Z,207.45
2024-01-17T16:19:21.672Z,204.13
2024-01-17T16:21:55.073Z,205.60
2024-01-17T16:24:22.497Z,204.43
2024-01-17T16:26:50.352Z,209.15
2024-01-17T16:29:17.849Z,211.38
2024-01-17T16:31:50.468Z,209.25
2024-01-17T16:34:18.103Z,207.80
2024-01-17T16:36:45.398Z,210.77
2024-01-17T16:39:13.825Z,207.20
2024-01-17T16:41:42.843Z,207.18
2024-01-17T16:44:10.605Z,213.20
2024-01-17T16:46:41.570Z,206.60
2024-01-17T16:49:09.004Z,206.15
2024-01-17T16:51:36.691Z,203.18
2024-01-17T16:54:04.142Z,203.35
2024-01-17T16:56:31.753Z,211.18
2024-01-17T16:58:58.917Z,207.70
2024-01-17T17:01:26.427Z,201.70
2024-01-17T17:03:54.419Z,193.38
2024-01-17T17:06:22.997Z,205.50
2024-01-17T17:08:50.260Z,210.85
2024-01-17T17:11:17.465Z,210.95
2024-01-17T17:13:44.667Z,208.57
2024-01-17T17:16:11.920Z,215.70
2024-01-17T17:18:39.249Z,211.77
2024-01-17T17:21:06.834Z,209.23
2024-01-17T17:23:34.056Z,216.20
2024-01-17T17:26:07.079Z,215.60
2024-01-17T17:28:35.906Z,215.57
2024-01-17T17:31:03.265Z,207.77
2024-01-17T17:33:30.664Z,204.20
2024-01-17T17:35:58.215Z,204.40
2024-01-17T17:38:25.447Z,197.43
2024-01-17T17:40:52.803Z,196.98
2024-01-17T17:43:20.021Z,195.75
2024-01-17T17:45:47.222Z,195.80
2024-01-17T17:48:17.948Z,191.13
2024-01-17T17:50:45.649Z,192.93
2024-01-17T17:53:13.683Z,184.18
2024-01-17T17:55:43.175Z,186.40
2024-01-17T17:58:11.323Z,189.85
2024-01-17T18:00:38.747Z,184.82
2024-01-17T18:03:08.036Z,179.85
2024-01-17T18:05:35.590Z,178.63
2024-01-17T18:08:04.278Z,172.70
2024-01-17T18:10:32.931Z,170.57
2024-01-17T18:13:00.258Z,168.02
2024-01-17T18:15:27.880Z,170.23
2024-01-17T18:17:55.495Z,172.52
2024-01-17T18:20:23.668Z,167.35
2024-01-17T18:22:54.149Z,169.20
2024-01-17T18:25:21.462Z,161.00
2024-01-17T18:27:48.671Z,161.52
2024-01-17T18:30:16.312Z,164.68
2024-01-17T18:32:43.929Z,152.75
2024-01-17T18:35:11.432Z,158.52
2024-01-17T18:37:38.684Z,155.80
2024-01-17T18:40:10.058Z,154.40
2024-01-17T18:42:37.300Z,151.57
2024-01-17T18:45:04.802Z,156.73
2024-01-17T18:47:32.107Z,145.27
2024-01-17T18:49:59.340Z,150.63
2024-01-17T18:52:26.605Z,145.15
2024-01-17T18:54:53.785Z,144.38
2024-01-17T18:57:21.075Z,142.13
2024-01-17T18:59:48.997Z,139.80
2024-01-17T19:02:16.727Z,142.85
2024-01-17T19:04:44.051Z,134.02
2024-01-17T19:07:12.746Z,134.80
2024-01-17T19:09:39.976Z,129.45
2024-01-17T19:12:09.138Z,131.15
2024-01-17T19:14:36.712Z,128.85
2024-01-17T19:17:04.120Z,124.88
2024-01-17T19:19:31.507Z,119.18
2024-01-17T19:21:59.159Z,126.05
2024-01-17T19:24:26.724Z,125.10
2024-01-17T19:26:54.587Z,123.82
2024-01-17T19:29:21.886Z,120.63
2024-01-17T19:31:54.054Z,125.50
2024-01-17T19:34:21.806Z,123.43
2024-01-17T19:36:51.324Z,120.03
2024-01-17T19:39:18.544Z,119.75
2024-01-17T19:41:45.765Z,118.97
2024-01-17T19:44:13.098Z,118.97
2024-01-17T19:46:41.290Z,120.47
2024-01-17T19:49:09.222Z,117.43
2024-01-17T19:51:36.667Z,112.93
2024-01-17T19:54:05.048Z,111.10
2024-01-17T19:56:33.164Z,116.28
2024-01-17T19:59:00.374Z,113.72
2024-01-17T20:01:28.919Z,114.03
2024-01-17T20:03:56.393Z,114.05
2024-01-17T20:06:24.016Z,115.88
2024-01-17T20:08:51.517Z,111.40
2024-01-17T20:11:22.067Z,108.85
2024-01-17T20:13:50.044Z,110.20
2024-01-17T20:16:17.346Z,107.88
2024-01-17T20:18:44.920Z,108.70
2024-01-17T20:21:22.073Z,109.75
2024-01-17T20:23:50.487Z,107.25
2024-01-17T20:26:18.680Z,108.05
2024-01-17T20:28:45.931Z,108.25
2024-01-17T20:31:13.869Z,104.93
2024-01-17T20:33:42.870Z,105.15
2024-01-17T20:36:17.832Z,110.95
2024-01-17T20:38:45.433Z,110.22
2024-01-17T20:41:18.967Z,108.00
2024-01-17T20:43:46.836Z,110.47
2024-01-17T20:46:14.627Z,107.25
2024-01-17T20:48:42.133Z,104.45
2024-01-17T20:51:09.554Z,108.15
2024-01-17T20:53:37.577Z,106.20
2024-01-17T20:56:08.648Z,106.82
2024-01-17T20:58:36.321Z,104.85
2024-01-17T21:01:03.837Z,104.57
2024-01-17T21:03:31.251Z,103.53
2024-01-17T21:05:58.676Z,101.13
2024-01-17T21:08:26.734Z,103.80
2024-01-17T21:10:54.915Z,102.43
2024-01-17T21:13:22.771Z,103.63
2024-01-17T21:15:50.031Z,102.82
2024-01-17T21:18:20.448Z,101.70
2024-01-17T21:20:47.736Z,103.45
2024-01-17T21:23:17.614Z,98.30
2024-01-17T21:25:44.935Z,99.72
2024-01-17T21:28:12.166Z,98.20
2024-01-17T21:30:40.081Z,97.93
2024-01-17T21:33:07.709Z,96.18
2024-01-17T21:35:35.176Z,94.13
2024-01-17T21:38:03.090Z,94.45
2024-01-17T21:40:30.269Z,94.85
2024-01-17T21:42:57.463Z,96.47
2024-01-17T21:45:24.671Z,93.93
2024-01-17T21:47:51.967Z,90.93
2024-01-17T21:50:20.833Z,86.60
2024-01-17T21:52:48.017Z,85.20
2024-01-17T21:55:15.250Z,92.28
2024-01-17T21:57:42.453Z,90.07
2024-01-17T22:00:10.782Z,90.30
2024-01-17T22:02:38.201Z,89.15
2024-01-17T22:05:05.533Z,92.75
2024-01-17T22:07:32.771Z,84.22
2024-01-17T22:10:00.011Z,86.15
2024-01-17T22:12:27.336Z,86.22
2024-01-17T22:14:55.387Z,85.35
2024-01-17T22:17:22.745Z,80.38
2024-01-17T22:19:50.260Z,85.63
2024-01-17T22:22:17.491Z,83.88
2024-01-17T22:24:44.697Z,85.05
2024-01-17T22:27:11.971Z,82.57
2024-01-17T22:29:39.299Z,81.60
2024-01-17T22:32:06.505Z,84.72
2024-01-17T22:34:33.951Z,80.72
2024-01-17T22:37:01.440Z,83.75
2024-01-17T22:39:28.881Z,84.10
2024-01-17T22:41:57.156Z,81.68
2024-01-17T22:44:24.811Z,81.90
2024-01-17T22:46:52.082Z,79.55
2024-01-17T22:49:19.302Z,81.60
2024-01-17T22:51:52.288Z,79.65
2024-01-17T22:54:19.516Z,82.63
2024-01-17T22:56:46.778Z,84.55
2024-01-17T22:59:14.097Z,82.10
2024-01-17T23:01:41.316Z,80.70
2024-01-17T23:04:09.266Z,79.68
2024-01-17T23:06:36.794Z,79.53
2024-01-17T23:09:04.955Z,81.75
2024-01-17T23:11:37.220Z,78.05
2024-01-17T23:14:04.611Z,79.10
2024-01-17T23:16:32.810Z,78.22
2024-01-17T23:19:00.451Z,79.40
2024-01-17T23:21:27.829Z,81.13
2024-01-17T23:23:55.085Z,78.13
2024-01-17T23:26:22.307Z,84.93
2024-01-17T23:28:49.624Z,83.18
2024-01-17T23:31:16.887Z,84.00
2024-01-17T23:33:44.526Z,80.13
